Record high temperature 29.6°C Record low temperature -12.2°C Record high gust 79.6 km/h Record high average 153.6 km/h Record daily rain 37.0 mm Record low windchill -17.5°C Record high barometer 1038.4 hPa Record low barometer 980.3 hPa
Daily high pressure 1020.7 hPa Daily low pressure 1020.0 hPa Daily low windchill 8.6°C Daily high heat index 13.5°C Daily high gust speed 9.3 kmh OSO Daily high average speed 5.4 kmh SO
Wetterdaten
LETZTE AKTUALISIERUNG UM: 08:00 DATUM: April 21 2018, time of next update: 08:15
Aktuelles WetterClear Aktuelle Temperatur 11.6°C (52.8°F), Apparent temp 10.7°C, Apparent temp solar 12.6°C
Höchsttemperatur (seit Mitternacht)13.5°C um: 00:00 Tiefsttemperatur (seit Mitternacht)9.2°C um: 05:21
Windgeschwindigkeit (10 Minuten )4.4 kmh (2.4 kts) Windrichtung (Dir) (10 Minuten )SE (125°)
Windchill Temperatur 11.5°C Windspitzen (letzte Std)8.4 kmh (4.6 kts) um: 07:49
Windspitzen (seit Mitternacht)9.3 kmh (5.0 kts) um: 06:37 Höchstes Windmittel / Minute (seit Mitternacht)5.4 kmh (2.9 kts) um: 05:54
Regenmenge (letzte Std)0.0 mm Regenmenge (seit Mitternacht)0.0 mm (0.00 in.)---
Regenmenge diesen Monat 9.0 mm (0.35 in.) Regenmenge seit Jahresbeginn 131.4 mm (5.17 in.)
Höchste Regenmenge pro Minute (letzte Std)0.0 mm/min Höchste Regenmenge pro Stunde (letzte 6 Std)0.0 mm/stunde
Regenmenge Gestern 0.0 mm Taupunkt 8.9°C (Wet Bulb :10.2°C )
Luftfeuchtigkeit 84 %, Humidex 12.4°C Aktueller Luftdruck (auf Meereshöhe bezogen)1020.6 hPa
Luftdrucktendenz +0.1 hPa (letzte Std) Trend (letzte 1 Std)gleichbleibend
Luftdrucktendenz (letzte 12 Std)+0.6 hPa Luftdrucktendenz (letzte 6 Std)+0.0 hPa
Maximum Soil temperature (seit Mitternacht) 15.6°C Minimum Soil temperature(seit Mitternacht)13.9°C
Current Soil temperature 14°C
Current Solar 183 W/m²
Maximum solar (seit Mitternacht) 183 W/m² Minimum solar(seit Mitternacht)0 W/m²
Current 00:15 hours of sunshine today, current sky: bewölkt
Sunshine hours for the year: 340:38 hrs Sunshine hours for the month: 109:48 hrs
Current evapotranspiration rate 0.4 mm per day. Yesterday's reading 4.1

Diese Seite wurde mit aktuellen Daten einer DAVIS VP Wetterstation erstellt. Drücken Sie bitte auf "Aktualisieren" oder "neu laden" um die neuesten Daten zu erhalten.


Animated web cam image


Weather report/warning/Metars

Stuttgart-Echterdingen, Germany (EDDS) 48-41N 009-13E 391M
Apr 21, 2018 - 01:20 AM EDT / 2018.04.21 0520 UTC
Wind: Variable at 1 MPH (1 KT):0
Visibility: greater than 7 mile(s):0
Temperature: 50 F (10 C)
Dew Point: 48 F (9 C)
Relative Humidity: 93%
Pressure (altimeter): 30.12 in. Hg (1020 hPa)
ob: EDDS 210520Z VRB01KT CAVOK 10/09 Q1020 NOSIG
cycle: 5
Augsburg, Germany (EDMA) 48-26N 010-56E 463M
Apr 21, 2018 - 01:20 AM EDT / 2018.04.21 0520 UTC
Wind: from the SSE (150 degrees) at 5 MPH (4 KT):0
Visibility: greater than 7 mile(s):0
Temperature: 48 F (9 C)
Dew Point: 46 F (8 C)
Relative Humidity: 93%
Pressure (altimeter): 30.15 in. Hg (1021 hPa)
ob: EDMA 210520Z 15004KT CAVOK 09/08 Q1021
cycle: 5
Nuernberg, Germany (EDDN) 49-30N 011-03E 318M
Apr 21, 2018 - 01:20 AM EDT / 2018.04.21 0520 UTC
Wind: from the ESE (110 degrees) at 3 MPH (3 KT):0
Visibility: greater than 7 mile(s):0
Temperature: 50 F (10 C)
Dew Point: 42 F (6 C)
Relative Humidity: 76%
Pressure (altimeter): 30.12 in. Hg (1020 hPa)
ob: EDDN 210520Z 11003KT CAVOK 10/06 Q1020 NOSIG
cycle: 5
Berlin-Tegel, Germany (EDDT) 52-34N 013-19E 37M
Apr 21, 2018 - 01:20 AM EDT / 2018.04.21 0520 UTC
Wind: from the NW (310 degrees) at 6 MPH (5 KT):0
Visibility: greater than 7 mile(s):0
Temperature: 57 F (14 C)
Dew Point: 48 F (9 C)
Relative Humidity: 71%
Pressure (altimeter): 30.09 in. Hg (1019 hPa)
ob: EDDT 210520Z 31005KT CAVOK 14/09 Q1019 NOSIG
cycle: 5
Friedrichshafen, Germany (EDNY) 47-40N 009-31E 424M
Apr 21, 2018 - 01:20 AM EDT / 2018.04.21 0520 UTC
Wind: from the ENE (070 degrees) at 3 MPH (3 KT):0
Visibility: greater than 7 mile(s):0
Temperature: 44 F (7 C)
Dew Point: 42 F (6 C)
Relative Humidity: 93%
Pressure (altimeter): 30.18 in. Hg (1022 hPa)
ob: EDNY 210520Z 07003KT CAVOK 07/06 Q1022
cycle: 5
Hamburg-Finkenwerder, Germany (EDHI) 53-32N 009-50E 13M
Apr 21, 2018 - 01:20 AM EDT / 2018.04.21 0520 UTC
Wind: from the SW (230 degrees) at 5 MPH (4 KT):0
Visibility: less than 1 mile:0
Sky conditions: mostly clear
Temperature: 48 F (9 C)
Dew Point: 46 F (8 C)
Relative Humidity: 93%
Pressure (altimeter): 30.15 in. Hg (1021 hPa)
ob: EDHI 210520Z AUTO 23004KT 1100 1000 R23/1500N // FEW005/// 09/08 Q1021
cycle: 5



Die Wetterdaten werden alle 2 Minuten gespeichert, aber die Datenübertragung findet jede Minute statt. Die beste Ansicht wird in einer Auflösung von 800 x 600 und "True colour" erzielt. Linie zeigt die relative Luftfeuchtigkeit an.

Drücken Sie bitte auf "Aktualisieren" in Ihrem Browser, um die aktuellsten Daten zu erhalten.

Klicken Sie hier, um eine Übersicht der Durchschnitts- u. Extremwerte für den Monat zu erhalten
Created by "Weather Display" software version 10.37S at this start time/date 20:35:43 20.04.2018